createdAt,value
2018-10-11T00:00:37.047Z,34.85
2018-10-11T00:03:05.464Z,35.85
2018-10-11T00:05:33.529Z,34.67
2018-10-11T00:08:01.709Z,34.08
2018-10-11T00:10:29.952Z,33.73
2018-10-11T00:12:58.056Z,32.70
2018-10-11T00:15:26.124Z,30.32
2018-10-11T00:17:54.223Z,30.95
2018-10-11T00:20:22.277Z,30.25
2018-10-11T00:22:50.570Z,31.82
2018-10-11T00:25:18.657Z,29.65
2018-10-11T00:27:46.793Z,29.80
2018-10-11T00:30:15.199Z,28.95
2018-10-11T00:32:43.235Z,30.17
2018-10-11T00:35:11.344Z,30.50
2018-10-11T00:37:39.399Z,31.87
2018-10-11T00:40:08.709Z,29.77
2018-10-11T00:42:36.856Z,29.90
2018-10-11T00:45:05.045Z,30.60
2018-10-11T00:47:33.336Z,30.15
2018-10-11T00:50:01.489Z,30.62
2018-10-11T00:52:29.587Z,31.02
2018-10-11T00:54:57.753Z,29.75
2018-10-11T00:57:25.897Z,28.87
2018-10-11T00:59:53.994Z,27.67
2018-10-11T01:02:22.225Z,26.97
2018-10-11T01:04:50.354Z,27.40
2018-10-11T01:07:18.535Z,26.37
2018-10-11T01:09:46.761Z,25.10
2018-10-11T01:12:14.769Z,25.00
2018-10-11T01:14:43.063Z,25.60
2018-10-11T01:17:11.222Z,26.15
2018-10-11T01:19:39.333Z,26.62
2018-10-11T01:22:07.368Z,25.48
2018-10-11T01:24:35.565Z,26.80
2018-10-11T01:27:03.711Z,25.20
2018-10-11T01:29:31.942Z,26.02
2018-10-11T01:31:59.990Z,25.23
2018-10-11T01:34:28.228Z,25.08
2018-10-11T01:36:56.496Z,27.02
2018-10-11T01:39:24.720Z,26.95
2018-10-11T01:41:52.904Z,26.67
2018-10-11T01:44:21.053Z,24.80
2018-10-11T01:46:49.267Z,25.25
2018-10-11T01:49:17.392Z,24.67
2018-10-11T01:51:45.498Z,23.57
2018-10-11T01:54:13.676Z,22.55
2018-10-11T01:56:41.734Z,24.23
2018-10-11T01:59:09.915Z,24.43
2018-10-11T02:01:37.984Z,24.10
2018-10-11T02:04:06.075Z,24.45
2018-10-11T02:06:34.111Z,24.00
2018-10-11T02:09:02.421Z,24.85
2018-10-11T02:11:30.578Z,23.57
2018-10-11T02:13:58.667Z,24.75
2018-10-11T02:16:26.837Z,23.47
2018-10-11T02:18:55.113Z,23.87
2018-10-11T02:21:24.990Z,23.33
2018-10-11T02:23:54.966Z,21.87
2018-10-11T02:26:23.883Z,23.20
2018-10-11T02:28:51.933Z,23.07
2018-10-11T02:31:19.999Z,23.63
2018-10-11T02:33:48.050Z,22.20
2018-10-11T02:36:16.364Z,22.55
2018-10-11T02:38:44.514Z,23.87
2018-10-11T02:41:13.741Z,23.20
2018-10-11T02:43:42.013Z,23.42
2018-10-11T02:46:10.186Z,24.00
2018-10-11T02:48:39.072Z,23.70
2018-10-11T02:51:07.145Z,27.77
2018-10-11T02:53:35.205Z,24.13
2018-10-11T02:56:03.881Z,23.22
2018-10-11T02:58:43.016Z,23.55
2018-10-11T03:01:11.400Z,22.27
2018-10-11T03:03:39.793Z,22.05
2018-10-11T03:06:08.069Z,21.68
2018-10-11T03:08:36.438Z,22.75
2018-10-11T03:11:04.752Z,22.25
2018-10-11T03:13:32.769Z,20.62
2018-10-11T03:16:00.963Z,21.50
2018-10-11T03:18:29.621Z,21.60
2018-10-11T03:20:58.570Z,22.45
2018-10-11T03:23:26.827Z,22.13
2018-10-11T03:25:55.020Z,21.90
2018-10-11T03:28:23.049Z,21.77
2018-10-11T03:30:51.301Z,22.37
2018-10-11T03:33:19.408Z,21.93
2018-10-11T03:35:47.501Z,22.30
2018-10-11T03:38:15.577Z,21.50
2018-10-11T03:40:43.752Z,22.90
2018-10-11T03:43:12.030Z,21.12
2018-10-11T03:45:40.078Z,22.58
2018-10-11T03:48:08.396Z,22.77
2018-10-11T03:50:36.534Z,22.37
2018-10-11T03:53:04.838Z,22.87
2018-10-11T03:55:32.933Z,21.82
2018-10-11T03:58:01.095Z,23.05
2018-10-11T04:00:29.377Z,22.93
2018-10-11T04:02:57.493Z,23.62
2018-10-11T04:05:25.637Z,23.07
2018-10-11T04:07:53.862Z,22.00
2018-10-11T04:10:21.957Z,23.90
2018-10-11T04:12:50.003Z,23.07
2018-10-11T04:15:18.440Z,24.02
2018-10-11T04:18:03.945Z,24.20
2018-10-11T04:20:32.208Z,22.90
2018-10-11T04:23:00.532Z,23.77
2018-10-11T04:25:28.728Z,23.47
2018-10-11T04:27:56.767Z,27.42
2018-10-11T04:30:25.434Z,24.20
2018-10-11T04:32:53.441Z,21.93
2018-10-11T04:35:21.847Z,21.90
2018-10-11T04:37:49.914Z,23.20
2018-10-11T04:40:17.981Z,22.70
2018-10-11T04:42:46.220Z,22.70
2018-10-11T04:45:14.214Z,22.02
2018-10-11T04:47:42.400Z,24.57
2018-10-11T04:50:10.557Z,22.98
2018-10-11T04:52:38.769Z,22.75
2018-10-11T04:55:06.927Z,23.40
2018-10-11T04:57:35.081Z,23.30
2018-10-11T05:00:03.396Z,23.20
2018-10-11T05:02:31.561Z,22.15
2018-10-11T05:04:59.642Z,22.35
2018-10-11T05:07:27.823Z,23.07
2018-10-11T05:09:55.898Z,22.87
2018-10-11T05:12:24.274Z,22.32
2018-10-11T05:14:52.590Z,32.85
2018-10-11T05:17:20.843Z,23.33
2018-10-11T05:19:48.968Z,23.67
2018-10-11T05:22:17.228Z,23.42
2018-10-11T05:24:45.456Z,24.43
2018-10-11T05:27:13.597Z,23.70
2018-10-11T05:29:41.846Z,22.90
2018-10-11T05:32:10.255Z,23.38
2018-10-11T05:34:38.356Z,24.07
2018-10-11T05:37:07.024Z,24.63
2018-10-11T05:39:35.316Z,24.32
2018-10-11T05:42:03.588Z,23.65
2018-10-11T05:44:31.795Z,24.00
2018-10-11T05:47:00.060Z,23.18
2018-10-11T05:49:28.098Z,23.02
2018-10-11T05:51:56.436Z,23.47
2018-10-11T05:54:24.695Z,23.18
2018-10-11T05:56:52.946Z,23.50
2018-10-11T05:59:21.323Z,23.30
2018-10-11T06:01:49.703Z,22.55
2018-10-11T06:04:18.060Z,23.02
2018-10-11T06:06:47.240Z,22.93
2018-10-11T06:09:15.539Z,22.45
2018-10-11T06:11:44.717Z,22.48
2018-10-11T06:14:13.552Z,21.97
2018-10-11T06:16:41.950Z,23.05
2018-10-11T06:19:11.380Z,23.00
2018-10-11T06:21:39.588Z,21.90
2018-10-11T06:24:08.029Z,23.10
2018-10-11T06:26:36.381Z,22.35
2018-10-11T06:29:04.892Z,21.48
2018-10-11T06:31:33.035Z,22.05
2018-10-11T06:34:01.333Z,23.60
2018-10-11T06:36:29.767Z,22.75
2018-10-11T06:38:58.832Z,24.70
2018-10-11T06:41:27.094Z,24.40
2018-10-11T06:43:56.070Z,24.75
2018-10-11T06:46:24.243Z,23.42
2018-10-11T06:48:52.541Z,26.12
2018-10-11T06:51:20.796Z,23.50
2018-10-11T06:53:50.139Z,24.05
2018-10-11T06:56:18.180Z,22.87
2018-10-11T06:58:46.257Z,22.67
2018-10-11T07:01:14.569Z,22.00
2018-10-11T07:03:42.693Z,23.83
2018-10-11T07:06:10.786Z,23.12
2018-10-11T07:08:38.842Z,22.75
2018-10-11T07:11:06.919Z,21.40
2018-10-11T07:13:35.000Z,22.45
2018-10-11T07:16:03.045Z,21.12
2018-10-11T07:18:31.263Z,20.00
2018-10-11T07:20:59.308Z,19.90
2018-10-11T07:23:27.504Z,20.00
2018-10-11T07:25:55.972Z,19.75
2018-10-11T07:28:24.140Z,19.77
2018-10-11T07:30:52.241Z,20.10
2018-10-11T07:33:20.393Z,19.60
2018-10-11T07:35:48.693Z,19.03
2018-10-11T07:38:16.728Z,21.07
2018-10-11T07:40:44.860Z,18.27
2018-10-11T07:43:12.924Z,19.90
2018-10-11T07:45:40.951Z,18.73
2018-10-11T07:48:09.384Z,17.50
2018-10-11T07:50:37.514Z,17.82
2018-10-11T07:53:05.605Z,18.20
2018-10-11T07:55:33.665Z,18.92
2018-10-11T07:58:02.056Z,17.85
2018-10-11T08:00:30.122Z,15.70
2018-10-11T08:02:58.331Z,16.12
2018-10-11T08:05:26.396Z,15.65
2018-10-11T08:07:54.529Z,16.57
2018-10-11T08:10:22.681Z,16.50
2018-10-11T08:12:50.700Z,16.05
2018-10-11T08:15:19.070Z,17.75
2018-10-11T08:17:47.420Z,17.87
2018-10-11T08:20:15.288Z,17.25
2018-10-11T08:22:43.310Z,16.47
2018-10-11T08:25:11.694Z,16.62
2018-10-11T08:27:39.689Z,16.23
2018-10-11T08:30:08.369Z,16.70
2018-10-11T08:32:36.583Z,16.02
2018-10-11T08:35:04.797Z,14.78
2018-10-11T08:37:33.040Z,13.90
2018-10-11T08:40:01.147Z,14.73
2018-10-11T08:42:29.522Z,13.80
2018-10-11T08:44:57.674Z,14.35
2018-10-11T08:47:26.009Z,15.10
2018-10-11T08:49:54.026Z,15.50
2018-10-11T08:52:22.145Z,14.20
2018-10-11T08:54:51.178Z,13.70
2018-10-11T08:57:19.955Z,13.60
2018-10-11T08:59:48.245Z,14.50
2018-10-11T09:02:16.350Z,12.88
2018-10-11T09:04:45.050Z,12.80
2018-10-11T09:07:13.355Z,13.78
2018-10-11T09:09:41.625Z,13.10
2018-10-11T09:12:09.669Z,13.43
2018-10-11T09:14:37.851Z,12.80
2018-10-11T09:17:06.296Z,13.20
2018-10-11T09:19:34.285Z,12.47
2018-10-11T09:22:02.585Z,13.08
2018-10-11T09:24:31.073Z,11.87
2018-10-11T09:26:59.431Z,13.00
2018-10-11T09:29:27.632Z,11.93
2018-10-11T09:31:55.782Z,12.50
2018-10-11T09:34:23.874Z,12.37
2018-10-11T09:36:51.949Z,12.90
2018-10-11T09:39:19.990Z,12.70
2018-10-11T09:41:48.317Z,12.40
2018-10-11T09:44:16.472Z,12.75
2018-10-11T09:46:44.808Z,11.20
2018-10-11T09:49:12.901Z,11.97
2018-10-11T09:51:41.117Z,11.60
2018-10-11T09:54:09.145Z,10.98
2018-10-11T09:57:22.102Z,11.83
2018-10-11T09:59:50.245Z,11.00
2018-10-11T10:02:18.497Z,10.50
2018-10-11T10:04:47.825Z,11.03
2018-10-11T10:07:15.920Z,10.20
2018-10-11T10:09:44.854Z,10.48
2018-10-11T10:12:13.200Z,11.20
2018-10-11T10:14:41.993Z,11.20
2018-10-11T10:17:10.440Z,11.30
2018-10-11T10:19:38.744Z,10.80
2018-10-11T10:22:07.130Z,10.93
2018-10-11T10:24:35.284Z,10.90
2018-10-11T10:27:03.817Z,10.25
2018-10-11T10:29:31.873Z,10.85
2018-10-11T10:32:00.424Z,9.70
2018-10-11T10:34:28.633Z,10.38
2018-10-11T10:36:56.804Z,9.85
2018-10-11T10:39:25.052Z,10.73
2018-10-11T10:41:53.264Z,10.45
2018-10-11T10:44:21.293Z,10.95
2018-10-11T10:46:49.612Z,10.55
2018-10-11T10:49:17.668Z,10.72
2018-10-11T10:51:45.850Z,10.78
2018-10-11T10:54:19.434Z,10.30
2018-10-11T10:56:47.501Z,10.20
2018-10-11T10:59:15.699Z,10.13
2018-10-11T11:01:43.744Z,10.40
2018-10-11T11:04:11.855Z,10.13
2018-10-11T11:06:40.365Z,10.43
2018-10-11T11:09:09.949Z,9.60
2018-10-11T11:11:38.744Z,9.38
2018-10-11T11:14:07.384Z,11.00
2018-10-11T11:16:35.608Z,10.10
2018-10-11T11:19:04.061Z,10.00
2018-10-11T11:21:32.117Z,10.55
2018-10-11T11:24:00.229Z,10.68
2018-10-11T11:26:28.280Z,9.75
2018-10-11T11:28:56.886Z,9.78
2018-10-11T11:31:25.120Z,10.38
2018-10-11T11:33:53.256Z,10.97
2018-10-11T11:36:21.510Z,9.05
2018-10-11T11:38:49.651Z,9.93
2018-10-11T11:41:18.496Z,9.88
2018-10-11T11:43:46.708Z,9.70
2018-10-11T11:46:14.948Z,8.80
2018-10-11T11:48:43.119Z,9.43
2018-10-11T11:51:12.160Z,9.83
2018-10-11T11:53:41.475Z,10.08
2018-10-11T11:56:09.982Z,10.10
2018-10-11T11:58:38.799Z,9.33
2018-10-11T12:01:07.688Z,10.15
2018-10-11T12:03:35.932Z,9.78
2018-10-11T12:06:04.263Z,9.55
2018-10-11T12:08:33.289Z,10.10
2018-10-11T12:11:02.354Z,9.20
2018-10-11T12:13:30.648Z,9.20
2018-10-11T12:15:58.868Z,8.70
2018-10-11T12:18:26.913Z,9.27
2018-10-11T12:20:55.300Z,9.00
2018-10-11T12:23:23.389Z,9.20
2018-10-11T12:25:51.441Z,8.75
2018-10-11T12:28:19.695Z,8.80
2018-10-11T12:30:47.752Z,9.33
2018-10-11T12:33:15.893Z,8.73
2018-10-11T12:35:43.938Z,8.83
2018-10-11T12:38:12.029Z,8.55
2018-10-11T12:40:40.312Z,8.70
2018-10-11T12:43:08.493Z,9.20
2018-10-11T12:45:37.254Z,8.20
2018-10-11T12:48:04.744Z,7.27
2018-10-11T12:50:32.832Z,7.33
2018-10-11T12:53:01.002Z,7.80
2018-10-11T12:55:29.066Z,7.30
2018-10-11T12:57:57.402Z,7.77
2018-10-11T13:00:25.612Z,7.93
2018-10-11T13:02:53.811Z,8.70
2018-10-11T13:05:21.968Z,8.50
2018-10-11T13:07:50.008Z,8.60
2018-10-11T13:10:18.217Z,7.00
2018-10-11T13:12:46.278Z,8.00
2018-10-11T13:15:14.470Z,7.93
2018-10-11T13:17:43.647Z,7.27
2018-10-11T13:20:10.816Z,8.30
2018-10-11T13:22:39.008Z,7.40
2018-10-11T13:25:07.155Z,7.10
2018-10-11T13:27:35.373Z,8.93
2018-10-11T13:30:03.546Z,7.77
2018-10-11T13:32:31.666Z,7.50
2018-10-11T13:34:59.839Z,7.60
2018-10-11T13:37:27.941Z,7.03
2018-10-11T13:39:57.691Z,7.57
2018-10-11T13:42:24.188Z,7.40
2018-10-11T13:44:52.240Z,7.37
2018-10-11T13:47:20.391Z,7.70
2018-10-11T13:49:48.573Z,7.50
2018-10-11T13:52:20.556Z,6.37
2018-10-11T13:54:44.730Z,8.03
2018-10-11T13:57:12.940Z,6.77
2018-10-11T13:59:41.976Z,6.87
2018-10-11T14:02:10.040Z,8.50
2018-10-11T14:04:38.113Z,7.10
2018-10-11T14:07:06.140Z,8.57
2018-10-11T14:09:34.400Z,8.40
2018-10-11T14:12:02.536Z,7.33
2018-10-11T14:14:30.676Z,7.13
2018-10-11T14:16:58.845Z,8.03
2018-10-11T14:19:27.086Z,7.70
2018-10-11T14:21:55.168Z,6.10
2018-10-11T14:24:23.362Z,6.83
2018-10-11T14:26:51.422Z,6.37
2018-10-11T14:29:19.579Z,7.23
2018-10-11T14:31:48.014Z,7.07
2018-10-11T14:34:16.161Z,7.77
2018-10-11T14:36:44.307Z,6.93
2018-10-11T14:39:12.490Z,6.90
2018-10-11T14:41:40.596Z,9.00
2018-10-11T14:44:08.645Z,7.63
2018-10-11T14:46:36.748Z,9.77
2018-10-11T14:49:05.087Z,6.97
2018-10-11T14:51:33.413Z,6.73
2018-10-11T14:54:01.561Z,7.40
2018-10-11T14:56:29.861Z,9.07
2018-10-11T14:58:58.097Z,7.40
2018-10-11T15:01:27.045Z,7.77
2018-10-11T15:03:55.089Z,6.83
2018-10-11T15:06:23.179Z,8.57
2018-10-11T15:08:51.276Z,6.43
2018-10-11T15:11:19.328Z,12.00
2018-10-11T15:13:47.403Z,7.87
2018-10-11T15:16:15.676Z,6.17
2018-10-11T15:18:43.759Z,9.50
2018-10-11T15:21:11.800Z,6.90
2018-10-11T15:23:39.934Z,6.97
2018-10-11T15:26:08.084Z,8.83
2018-10-11T15:28:36.265Z,7.60
2018-10-11T15:31:04.403Z,8.07
2018-10-11T15:33:32.512Z,9.87
